Time;durP1;ratioP1;P1;durP2;ratioP2;P2;SDS_P1;SDS_P2;PMS_P1;PMS_P2;Temp;Humidity;BMP_temperature;BMP_pressure;BME280_temperature;BME280_humidity;BME280_pressure;Samples;Min_cycle;Max_cycle;Signal;HPM_P1;HPM_P2
2021/01/12 00:00:08;;;;;;;60.05;27.17;;;;;;;-6.47;100.00;96218.66;1036041;28;20014;-72
2021/01/12 00:00:39;;;;;;;60.83;26.52;;;;;;;-6.42;100.00;96220.22;1040085;28;20010;-71
2021/01/12 00:01:10;;;;;;;56.45;26.85;;;;;;;-6.45;100.00;96222.00;1040139;28;20665;-71
2021/01/12 00:01:48;;;;;;;55.28;25.15;;;;;;;-6.51;100.00;96213.72;1036156;28;20018;-72
2021/01/12 00:02:26;;;;;;;57.50;26.50;;;;;;;-6.46;100.00;96222.06;1031939;28;20114;-72
2021/01/12 00:02:57;;;;;;;56.72;25.90;;;;;;;-6.47;100.00;96217.84;1036001;28;20265;-72
2021/01/12 00:03:28;;;;;;;62.22;28.38;;;;;;;-6.46;100.00;96225.53;1036084;28;20263;-71
2021/01/12 00:03:59;;;;;;;59.75;27.60;;;;;;;-6.40;100.00;96227.00;1036156;28;20268;-71
2021/01/12 00:04:32;;;;;;;59.47;26.85;;;;;;;-6.40;100.00;96229.56;1031991;28;20418;-71
2021/01/12 00:05:04;;;;;;;58.05;26.08;;;;;;;-6.41;100.00;96233.06;1031776;28;20407;-72
2021/01/12 00:05:35;;;;;;;61.20;27.50;;;;;;;-6.39;100.00;96231.28;1032054;28;20813;-71
2021/01/12 00:06:06;;;;;;;59.45;28.15;;;;;;;-6.36;100.00;96232.88;1036023;28;20249;-71
2021/01/12 00:06:41;;;;;;;60.42;27.17;;;;;;;-6.36;100.00;96244.03;1044268;28;20239;-71
2021/01/12 00:07:12;;;;;;;53.80;25.85;;;;;;;-6.39;100.00;96246.78;1035970;28;20335;-72
2021/01/12 00:07:43;;;;;;;56.92;27.55;;;;;;;-6.46;100.00;96240.16;1036426;28;20253;-72
2021/01/12 00:08:14;;;;;;;55.08;27.08;;;;;;;-6.58;100.00;96227.75;1040132;28;20023;-72
2021/01/12 00:08:45;;;;;;;60.13;26.77;;;;;;;-6.47;100.00;96257.41;1031857;28;20014;-72
2021/01/12 00:09:16;;;;;;;62.70;27.33;;;;;;;-6.49;100.00;96248.06;1039921;28;20071;-72
2021/01/12 00:09:46;;;;;;;57.50;27.13;;;;;;;-6.56;100.00;96236.31;1036441;28;20418;-70
2021/01/12 00:10:19;;;;;;;58.90;27.70;;;;;;;-6.41;100.00;96239.97;1036788;28;20006;-71
2021/01/12 00:10:50;;;;;;;59.60;27.45;;;;;;;-6.48;100.00;96253.16;1032364;28;20096;-72
2021/01/12 00:11:21;;;;;;;62.72;27.85;;;;;;;-6.49;100.00;96248.88;1035863;28;20354;-71
2021/01/12 00:11:53;;;;;;;59.00;27.15;;;;;;;-6.51;100.00;96255.03;1027942;28;20361;-72
2021/01/12 00:12:24;;;;;;;55.97;26.25;;;;;;;-6.52;100.00;96258.50;1035998;28;20311;-71
2021/01/12 00:12:56;;;;;;;57.85;26.30;;;;;;;-6.55;100.00;96253.47;1036042;28;20836;-72
2021/01/12 00:13:27;;;;;;;58.33;27.08;;;;;;;-6.55;100.00;96256.06;1031875;28;20367;-71
2021/01/12 00:13:58;;;;;;;58.13;28.15;;;;;;;-6.52;100.00;96259.34;1039983;28;20273;-71
2021/01/12 00:14:31;;;;;;;63.40;28.70;;;;;;;-6.49;100.00;96254.06;1031901;28;20569;-71
2021/01/12 00:15:04;;;;;;;64.78;29.73;;;;;;;-6.47;100.00;96256.56;1035990;28;20434;-71
2021/01/12 00:15:35;;;;;;;59.88;27.30;;;;;;;-6.46;100.00;96247.91;1031847;28;20245;-71
2021/01/12 00:16:05;;;;;;;57.67;27.23;;;;;;;-6.46;100.00;96248.78;1036027;28;20257;-72
2021/01/12 00:16:36;;;;;;;61.75;28.25;;;;;;;-6.48;100.00;96245.41;1036064;28;20022;-72
2021/01/12 00:17:07;;;;;;;59.55;26.45;;;;;;;-6.47;100.00;96241.91;1035863;28;20490;-72
2021/01/12 00:17:38;;;;;;;60.15;28.42;;;;;;;-6.57;100.00;96226.88;1031896;28;20066;-71
2021/01/12 00:18:09;;;;;;;52.97;26.15;;;;;;;-6.56;100.00;96251.81;1036026;28;20331;-72
2021/01/12 00:18:39;;;;;;;53.65;25.58;;;;;;;-6.53;100.00;96249.06;1027918;28;20015;-71
2021/01/12 00:19:10;;;;;;;58.70;26.92;;;;;;;-6.57;100.00;96253.53;1040028;28;20052;-72
2021/01/12 00:19:41;;;;;;;60.33;27.17;;;;;;;-6.64;100.00;96245.19;1039864;28;20033;-73
2021/01/12 00:20:12;;;;;;;57.20;26.70;;;;;;;-6.67;100.00;96245.34;1035934;28;20026;-71
2021/01/12 00:20:42;;;;;;;61.83;27.48;;;;;;;-6.70;100.00;96248.03;1044147;28;20029;-73
2021/01/12 00:21:14;;;;;;;57.17;26.27;;;;;;;-6.69;100.00;96249.75;1036005;28;20108;-72
2021/01/12 00:21:44;;;;;;;58.50;27.38;;;;;;;-6.65;100.00;96251.28;1044026;28;20067;-72
2021/01/12 00:22:18;;;;;;;59.65;28.08;;;;;;;-6.64;100.00;96250.34;1040036;28;20749;-71
2021/01/12 00:22:49;;;;;;;62.33;27.70;;;;;;;-6.93;100.00;96201.66;1044188;28;20406;-72
2021/01/12 00:23:20;;;;;;;65.90;28.02;;;;;;;-6.67;100.00;96244.47;1039914;28;20270;-72
2021/01/12 00:23:50;;;;;;;63.83;28.25;;;;;;;-6.67;100.00;96244.47;1039848;28;20041;-71
2021/01/12 00:24:21;;;;;;;56.08;25.98;;;;;;;-6.67;100.00;96237.59;1032138;28;20052;-72
2021/01/12 00:24:52;;;;;;;57.78;27.65;;;;;;;-6.67;100.00;96245.34;1036155;28;20403;-71
2021/01/12 00:25:22;;;;;;;60.92;27.42;;;;;;;-6.65;100.00;96243.53;1040005;28;20023;-71
2021/01/12 00:25:53;;;;;;;59.78;27.75;;;;;;;-6.65;100.00;96237.53;1031777;28;20025;-72
2021/01/12 00:26:24;;;;;;;63.38;28.65;;;;;;;-6.69;100.00;96230.81;1039988;28;20017;-71
2021/01/12 00:26:55;;;;;;;57.80;26.15;;;;;;;-6.63;100.00;96240.88;1040069;28;20032;-71
2021/01/12 00:27:25;;;;;;;60.63;26.60;;;;;;;-6.62;100.00;96245.13;1036019;28;20124;-73
2021/01/12 00:27:56;;;;;;;62.05;28.65;;;;;;;-6.67;100.00;96245.34;1039962;28;20025;-72
2021/01/12 00:28:27;;;;;;;64.53;28.50;;;;;;;-6.68;100.00;96237.66;1040162;28;20108;-72
2021/01/12 00:28:58;;;;;;;58.22;26.42;;;;;;;-6.76;100.00;96224.22;1035974;28;20022;-72
2021/01/12 00:29:28;;;;;;;62.38;29.27;;;;;;;-6.63;100.00;96243.47;1036006;28;20467;-71
2021/01/12 00:29:59;;;;;;;61.08;27.58;;;;;;;-6.63;100.00;96239.13;1035864;28;20050;-72
2021/01/12 00:30:30;;;;;;;61.28;28.70;;;;;;;-6.61;100.00;96243.41;1040125;28;20022;-71
2021/01/12 00:31:07;;;;;;;62.70;28.20;;;;;;;-6.57;100.00;96238.03;1040021;28;20108;-72
2021/01/12 00:31:40;;;;;;;56.40;26.23;;;;;;;-6.58;100.00;96236.38;1036007;28;20326;-72
2021/01/12 00:32:20;;;;;;;59.85;27.50;;;;;;;-6.91;100.00;96190.41;1035836;28;20299;-72
2021/01/12 00:32:51;;;;;;;57.75;27.27;;;;;;;-6.60;100.00;96230.44;1044223;28;20286;-71
2021/01/12 00:33:22;;;;;;;58.70;27.55;;;;;;;-6.54;100.00;96243.06;1039972;28;20259;-72
2021/01/12 00:33:53;;;;;;;61.00;27.77;;;;;;;-6.57;100.00;96226.88;1036392;28;20018;-71
2021/01/12 00:34:24;;;;;;;61.17;28.45;;;;;;;-6.63;100.00;96213.31;1037327;28;20014;-72
2021/01/12 00:34:55;;;;;;;58.42;26.88;;;;;;;-6.49;100.00;96229.97;1041868;28;20039;-70
2021/01/12 00:35:26;;;;;;;57.67;26.63;;;;;;;-6.46;100.00;96232.41;1037747;28;20700;-72
2021/01/12 00:36:02;;;;;;;59.58;26.85;;;;;;;-6.50;100.00;96228.28;1045850;28;20221;-71
2021/01/12 00:36:46;;;;;;;58.72;27.55;;;;;;;-6.42;100.00;96233.16;1041759;28;20017;-71
2021/01/12 00:37:18;;;;;;;58.22;26.35;;;;;;;-6.44;100.00;96230.63;1037680;28;20260;-71
2021/01/12 00:37:50;;;;;;;55.53;25.40;;;;;;;-6.45;100.00;96234.09;1037959;28;20925;-70
2021/01/12 00:38:21;;;;;;;60.08;28.13;;;;;;;-6.44;100.00;96225.47;1037360;28;20257;-72
2021/01/12 00:38:52;;;;;;;53.80;25.60;;;;;;;-6.41;100.00;96224.47;1045909;28;20256;-71
2021/01/12 00:39:22;;;;;;;56.78;27.33;;;;;;;-6.41;100.00;96214.97;1033810;28;20018;-71
2021/01/12 00:39:53;;;;;;;62.75;25.35;;;;;;;-6.35;100.00;96221.63;1042009;28;20644;-70
2021/01/12 00:40:24;;;;;;;60.45;27.85;;;;;;;-6.32;100.00;96214.59;1041640;28;20510;-71
2021/01/12 00:40:55;;;;;;;57.60;27.25;;;;;;;-6.28;100.00;96223.06;1041859;28;20445;-70
2021/01/12 00:41:29;;;;;;;61.53;27.88;;;;;;;-6.26;100.00;96219.47;1046168;28;20059;-70
2021/01/12 00:42:00;;;;;;;60.25;27.48;;;;;;;-6.26;100.00;96219.47;1045961;28;20081;-70
2021/01/12 00:42:31;;;;;;;60.28;27.02;;;;;;;-6.23;100.00;96222.81;1033756;28;20265;-72
2021/01/12 00:43:01;;;;;;;57.97;25.90;;;;;;;-6.21;100.00;96221.88;1042169;28;20488;-71
2021/01/12 00:43:32;;;;;;;60.08;27.08;;;;;;;-6.17;100.00;96222.56;1033800;28;20022;-71
2021/01/12 00:44:04;;;;;;;61.63;28.45;;;;;;;-6.22;100.00;96209.84;1033732;28;20022;-71
2021/01/12 00:44:35;;;;;;;59.53;28.70;;;;;;;-6.13;100.00;96224.97;1041981;28;20515;-71
2021/01/12 00:45:09;;;;;;;61.10;26.42;;;;;;;-6.10;100.00;96227.41;1037987;28;20253;-70
2021/01/12 00:45:40;;;;;;;57.75;26.95;;;;;;;-6.07;100.00;96227.28;1038074;28;20064;-70
2021/01/12 00:46:11;;;;;;;61.97;27.92;;;;;;;-6.08;100.00;96219.56;1034153;28;20685;-70
2021/01/12 00:46:43;;;;;;;54.92;26.15;;;;;;;-5.98;100.00;96230.34;1034163;28;20074;-71
2021/01/12 00:47:14;;;;;;;60.33;28.17;;;;;;;-5.95;100.00;96227.63;1034167;28;20021;-70
2021/01/12 00:47:45;;;;;;;58.88;27.48;;;;;;;-5.95;100.00;96212.09;1034321;28;20269;-70
2021/01/12 00:48:16;;;;;;;59.53;28.20;;;;;;;-5.86;100.00;96229.78;1037877;28;20284;-70
2021/01/12 00:48:47;;;;;;;65.38;29.08;;;;;;;-5.95;100.00;96212.09;1037483;28;20271;-71
2021/01/12 00:49:19;;;;;;;62.63;28.20;;;;;;;-5.86;100.00;96222.03;1046058;28;20025;-71
2021/01/12 00:49:50;;;;;;;64.82;28.10;;;;;;;-5.82;100.00;96227.91;1037910;28;20014;-71
2021/01/12 00:50:21;;;;;;;60.53;28.80;;;;;;;-5.83;100.00;96227.06;1042341;28;20248;-70
2021/01/12 00:50:52;;;;;;;60.95;29.15;;;;;;;-5.80;100.00;96226.94;1045366;28;20260;-71
2021/01/12 00:51:32;;;;;;;55.85;26.42;;;;;;;-5.95;100.00;96186.25;1035957;28;20028;-71
2021/01/12 00:52:10;;;;;;;59.50;27.35;;;;;;;-5.84;100.00;96196.09;1044225;28;20500;-71
2021/01/12 00:52:41;;;;;;;54.55;26.33;;;;;;;-5.72;100.00;96221.41;1044201;28;20255;-72
2021/01/12 00:53:12;;;;;;;60.30;27.50;;;;;;;-5.78;100.00;96219.06;1044069;28;20569;-72
2021/01/12 00:53:43;;;;;;;61.38;28.50;;;;;;;-5.73;100.00;96222.28;1039972;28;20632;-72
2021/01/12 00:54:15;;;;;;;55.67;27.50;;;;;;;-5.73;100.00;96224.88;1031918;28;20521;-71
2021/01/12 00:54:46;;;;;;;62.08;28.33;;;;;;;-5.68;100.00;96210.84;1039918;28;20014;-72
2021/01/12 00:55:17;;;;;;;57.42;27.38;;;;;;;-5.69;100.00;96210.91;1035927;28;20733;-73
2021/01/12 00:55:49;;;;;;;59.83;27.80;;;;;;;-5.61;100.00;96215.72;1032064;28;20025;-72
2021/01/12 00:56:19;;;;;;;62.78;28.60;;;;;;;-5.67;100.00;96211.69;1044030;28;20036;-71
2021/01/12 00:56:51;;;;;;;58.80;29.00;;;;;;;-5.58;100.00;96213.00;1043850;28;20275;-72
2021/01/12 00:57:22;;;;;;;60.63;28.50;;;;;;;-5.56;100.00;96213.78;1031799;28;20443;-71
2021/01/12 00:57:53;;;;;;;53.97;28.33;;;;;;;-5.55;100.00;96210.28;1032034;28;20337;-71
2021/01/12 00:58:24;;;;;;;58.00;27.52;;;;;;;-5.52;100.00;96217.88;1039846;28;20025;-72
2021/01/12 00:58:55;;;;;;;56.55;27.00;;;;;;;-5.59;100.00;96201.84;1035928;28;20040;-73
2021/01/12 00:59:25;;;;;;;55.40;28.05;;;;;;;-5.56;100.00;96209.44;1031915;28;20019;-71
2021/01/12 00:59:56;;;;;;;55.47;28.48;;;;;;;-5.55;100.00;96208.53;1035336;28;20021;-72
2021/01/12 01:00:27;;;;;;;58.78;26.73;;;;;;;-5.53;100.00;96206.72;1039490;28;20525;-73
2021/01/12 01:00:58;;;;;;;58.65;27.65;;;;;;;-5.52;100.00;96210.13;1031823;28;20569;-72
2021/01/12 01:01:29;;;;;;;58.70;27.48;;;;;;;-5.64;100.00;96190.84;1035742;28;20014;-72
2021/01/12 01:02:01;;;;;;;52.50;26.20;;;;;;;-5.49;100.00;96199.63;1035856;28;20021;-71
2021/01/12 01:02:32;;;;;;;56.13;27.75;;;;;;;-5.55;100.00;96208.53;1039900;28;20024;-71
2021/01/12 01:03:03;;;;;;;59.47;28.00;;;;;;;-5.51;100.00;96201.47;1031736;28;20254;-72
2021/01/12 01:03:34;;;;;;;60.67;27.58;;;;;;;-5.46;100.00;96201.25;1039491;28;20025;-72
2021/01/12 01:04:06;;;;;;;56.00;27.42;;;;;;;-5.46;100.00;96198.66;1039922;28;20025;-72
2021/01/12 01:04:37;;;;;;;59.63;27.65;;;;;;;-5.52;100.00;96186.84;1044046;28;20409;-72
2021/01/12 01:05:09;;;;;;;52.92;26.50;;;;;;;-5.40;100.00;96198.38;1035756;28;20261;-71
2021/01/12 01:05:39;;;;;;;56.60;27.30;;;;;;;-5.50;100.00;96188.47;1039953;28;20473;-71
2021/01/12 01:06:10;;;;;;;55.13;27.83;;;;;;;-5.40;100.00;96204.41;1039840;28;20339;-72
2021/01/12 01:06:41;;;;;;;58.17;28.23;;;;;;;-5.57;100.00;96181.91;1039946;28;20028;-72
2021/01/12 01:07:12;;;;;;;54.25;27.10;;;;;;;-5.59;100.00;96175.97;1039825;28;20640;-72
2021/01/12 01:07:46;;;;;;;54.63;27.55;;;;;;;-5.53;100.00;96173.06;1031727;28;20174;-72
2021/01/12 01:08:17;;;;;;;59.03;26.77;;;;;;;-5.43;100.00;96193.31;1039947;28;20013;-73
2021/01/12 01:08:48;;;;;;;56.00;27.80;;;;;;;-5.42;100.00;96202.78;1044147;28;20675;-71
2021/01/12 01:09:19;;;;;;;55.03;27.98;;;;;;;-5.39;100.00;96200.06;1031643;28;20057;-72
2021/01/12 01:09:50;;;;;;;56.15;27.30;;;;;;;-5.41;100.00;96196.72;1039692;28;20022;-71
2021/01/12 01:10:21;;;;;;;55.35;27.38;;;;;;;-5.43;100.00;96203.69;1039946;28;20018;-71
2021/01/12 01:10:51;;;;;;;62.17;29.33;;;;;;;-5.65;100.00;96158.13;1031646;28;20022;-71
2021/01/12 01:11:22;;;;;;;56.92;27.67;;;;;;;-5.43;100.00;96198.50;1039736;28;20018;-72
2021/01/12 01:11:53;;;;;;;59.65;27.30;;;;;;;-5.41;100.00;96210.47;1035703;28;20022;-71
2021/01/12 01:12:24;;;;;;;53.45;28.25;;;;;;;-5.40;100.00;96206.13;1035761;28;20113;-71
2021/01/12 01:12:54;;;;;;;58.95;29.13;;;;;;;-5.40;100.00;96212.16;1039920;28;20006;-72
2021/01/12 01:13:25;;;;;;;52.55;27.75;;;;;;;-5.50;100.00;96198.81;1031678;28;20015;-72
2021/01/12 01:13:57;;;;;;;54.85;26.77;;;;;;;-5.46;100.00;96219.38;1031614;28;20109;-71
2021/01/12 01:14:28;;;;;;;56.58;26.98;;;;;;;-5.61;100.00;96208.81;1035792;28;20022;-72
2021/01/12 01:14:59;;;;;;;63.33;28.60;;;;;;;-5.51;100.00;96224.75;1044062;28;20739;-71
2021/01/12 01:15:29;;;;;;;61.10;27.85;;;;;;;-5.52;100.00;96226.50;1035770;28;20379;-72
2021/01/12 01:16:00;;;;;;;55.67;26.58;;;;;;;-5.48;100.00;96226.38;1047976;28;20059;-73
2021/01/12 01:16:32;;;;;;;54.92;26.40;;;;;;;-5.58;100.00;96211.25;1031661;28;20476;-71
2021/01/12 01:17:02;;;;;;;55.03;27.58;;;;;;;-5.48;100.00;96221.19;1039922;28;20013;-72
2021/01/12 01:17:34;;;;;;;58.92;28.25;;;;;;;-5.45;100.00;96224.47;1031627;28;20242;-72
2021/01/12 01:18:05;;;;;;;53.42;26.60;;;;;;;-5.43;100.00;96224.38;1043840;28;20581;-72
2021/01/12 01:18:36;;;;;;;58.40;27.70;;;;;;;-5.44;100.00;96220.13;1043924;28;20266;-72
2021/01/12 01:19:07;;;;;;;53.47;27.33;;;;;;;-5.50;100.00;96210.91;1031797;28;20137;-73
2021/01/12 01:19:38;;;;;;;58.90;27.52;;;;;;;-5.43;100.00;96219.19;1048002;28;20017;-72
2021/01/12 01:20:09;;;;;;;56.17;27.45;;;;;;;-5.46;100.00;96221.97;1039831;28;20100;-73
2021/01/12 01:20:40;;;;;;;58.65;28.50;;;;;;;-5.53;100.00;96219.63;1035926;28;20052;-73
2021/01/12 01:21:12;;;;;;;55.08;29.83;;;;;;;-5.53;100.00;96219.63;1039866;28;20347;-72
2021/01/12 01:21:47;;;;;;;55.55;27.80;;;;;;;-5.58;100.00;96228.53;1039811;28;20113;-71
2021/01/12 01:22:22;;;;;;;58.88;29.75;;;;;;;-5.57;100.00;96227.63;1031560;28;20257;-72
2021/01/12 01:22:53;;;;;;;58.38;27.10;;;;;;;-5.56;100.00;96240.47;1044085;28;20263;-71
2021/01/12 01:23:24;;;;;;;57.97;28.48;;;;;;;-5.54;100.00;96243.84;1039876;28;20253;-71
2021/01/12 01:23:55;;;;;;;56.63;27.85;;;;;;;-5.55;100.00;96244.75;1035820;28;20017;-72
2021/01/12 01:24:25;;;;;;;58.42;28.08;;;;;;;-5.52;100.00;96238.56;1035743;28;20252;-71
2021/01/12 01:24:57;;;;;;;55.03;25.85;;;;;;;-5.51;100.00;96238.50;1039821;28;20559;-71
2021/01/12 01:25:27;;;;;;;55.25;26.35;;;;;;;-5.51;100.00;96240.28;1035763;28;20018;-71
2021/01/12 01:25:58;;;;;;;55.67;27.48;;;;;;;-5.52;100.00;96236.84;1031632;28;20329;-71
2021/01/12 01:26:29;;;;;;;56.55;27.15;;;;;;;-5.50;100.00;96239.38;1043598;28;20489;-71
2021/01/12 01:27:00;;;;;;;58.60;28.52;;;;;;;-5.47;100.00;96243.56;1039870;28;20068;-71
2021/01/12 01:27:33;;;;;;;56.60;27.42;;;;;;;-5.44;100.00;96238.25;1039815;28;20038;-73
2021/01/12 01:28:04;;;;;;;55.45;27.63;;;;;;;-5.42;100.00;96239.00;1035734;28;20256;-71
2021/01/12 01:28:35;;;;;;;57.45;27.75;;;;;;;-5.39;100.00;96241.47;1031644;28;20305;-71
2021/01/12 01:29:06;;;;;;;51.08;25.83;;;;;;;-5.39;100.00;96237.13;1035900;28;20034;-72
2021/01/12 01:29:36;;;;;;;55.50;27.42;;;;;;;-5.34;100.00;96239.50;1031692;28;20034;-72
2021/01/12 01:30:08;;;;;;;51.15;24.92;;;;;;;-5.35;100.00;96248.16;1039779;28;20579;-72
2021/01/12 01:30:39;;;;;;;53.08;27.20;;;;;;;-5.32;100.00;96237.66;1039873;28;20055;-72
2021/01/12 01:31:10;;;;;;;56.72;27.73;;;;;;;-5.32;100.00;96242.84;1031679;28;20282;-72
2021/01/12 01:31:42;;;;;;;55.28;26.95;;;;;;;-5.30;100.00;96243.59;1043903;28;20469;-72
2021/01/12 01:32:13;;;;;;;56.72;27.13;;;;;;;-5.31;100.00;96245.38;1039732;28;20021;-72
2021/01/12 01:32:44;;;;;;;58.53;28.13;;;;;;;-5.36;100.00;96234.38;1027497;28;20778;-71
2021/01/12 01:33:15;;;;;;;55.35;26.50;;;;;;;-5.32;100.00;96237.66;1039799;28;20041;-71
2021/01/12 01:33:46;;;;;;;51.85;25.27;;;;;;;-5.30;100.00;96233.25;1035811;28;20641;-71
2021/01/12 01:34:17;;;;;;;52.80;26.00;;;;;;;-5.26;100.00;96244.31;1039807;28;20151;-73
2021/01/12 01:34:48;;;;;;;54.05;25.83;;;;;;;-5.25;100.00;96244.22;1039626;28;20765;-72
2021/01/12 01:35:19;;;;;;;53.72;26.33;;;;;;;-5.24;100.00;96251.09;1031718;28;20117;-71
2021/01/12 01:35:50;;;;;;;52.30;25.33;;;;;;;-5.22;100.00;96251.03;1031732;28;20026;-72
2021/01/12 01:36:21;;;;;;;53.72;26.20;;;;;;;-5.25;100.00;96251.16;1027636;28;20054;-72
2021/01/12 01:36:52;;;;;;;54.83;28.10;;;;;;;-5.33;100.00;96235.97;1031620;28;20045;-71
2021/01/12 01:37:23;;;;;;;52.10;26.75;;;;;;;-5.25;100.00;96251.16;1035875;28;20340;-71
2021/01/12 01:37:54;;;;;;;53.83;26.35;;;;;;;-5.24;100.00;96234.72;1039877;28;20561;-72
2021/01/12 01:38:24;;;;;;;52.20;25.58;;;;;;;-5.24;100.00;96237.28;1035736;28;20068;-71
2021/01/12 01:38:55;;;;;;;48.85;25.80;;;;;;;-5.23;100.00;96245.00;1035589;28;20330;-71
2021/01/12 01:39:26;;;;;;;53.50;26.23;;;;;;;-5.22;100.00;96244.09;1031723;28;20376;-71
2021/01/12 01:39:57;;;;;;;56.92;26.90;;;;;;;-5.23;100.00;96246.75;1031750;28;20022;-71
2021/01/12 01:40:29;;;;;;;55.92;27.10;;;;;;;-5.30;100.00;96234.09;1031646;28;20781;-71
2021/01/12 01:41:00;;;;;;;51.60;26.10;;;;;;;-5.24;100.00;96238.16;1031541;28;20018;-71
2021/01/12 01:41:31;;;;;;;52.22;27.20;;;;;;;-5.21;100.00;96240.56;1043969;28;20256;-71
2021/01/12 01:42:02;;;;;;;57.10;26.80;;;;;;;-5.22;100.00;96230.31;1043930;28;20251;-71
2021/01/12 01:42:35;;;;;;;52.17;25.88;;;;;;;-5.22;100.00;96240.69;1031662;28;20465;-72
2021/01/12 01:43:06;;;;;;;52.38;26.48;;;;;;;-5.22;100.00;96228.56;1047974;28;20262;-71
2021/01/12 01:43:37;;;;;;;48.95;24.52;;;;;;;-5.22;100.00;96233.75;1043945;28;20647;-71
2021/01/12 01:44:08;;;;;;;48.60;25.38;;;;;;;-5.19;100.00;96228.44;1035706;28;20061;-72
2021/01/12 01:44:39;;;;;;;54.85;27.23;;;;;;;-5.21;100.00;96225.03;1035703;28;20743;-72
2021/01/12 01:45:10;;;;;;;53.20;26.60;;;;;;;-5.23;100.00;96221.69;1035618;28;20032;-71
2021/01/12 01:45:40;;;;;;;48.50;24.55;;;;;;;-5.28;100.00;96213.31;1043988;28;20133;-72
2021/01/12 01:46:11;;;;;;;51.15;24.65;;;;;;;-5.29;100.00;96206.47;1039864;28;20728;-71
2021/01/12 01:46:42;;;;;;;51.25;25.40;;;;;;;-5.24;100.00;96217.44;1031737;28;20026;-72
2021/01/12 01:47:13;;;;;;;51.38;25.52;;;;;;;-5.31;100.00;96203.97;1039692;28;20112;-71
2021/01/12 01:47:45;;;;;;;52.08;26.42;;;;;;;-5.20;100.00;96211.22;1027725;28;20596;-71
2021/01/12 01:48:16;;;;;;;51.60;24.25;;;;;;;-5.20;100.00;96208.63;1039858;28;20021;-73
2021/01/12 01:48:47;;;;;;;51.30;26.02;;;;;;;-5.19;100.00;96201.69;1031655;28;20682;-72
2021/01/12 01:49:18;;;;;;;50.35;25.85;;;;;;;-5.20;100.00;96210.38;1035694;28;20117;-72
2021/01/12 01:49:49;;;;;;;52.45;25.98;;;;;;;-5.22;100.00;96202.69;1035835;28;20022;-71
2021/01/12 01:50:20;;;;;;;49.47;24.90;;;;;;;-5.19;100.00;96202.53;1035797;28;20265;-72
2021/01/12 01:50:51;;;;;;;50.17;26.33;;;;;;;-5.22;100.00;96205.28;1039664;28;20030;-72
2021/01/12 01:51:22;;;;;;;50.50;25.38;;;;;;;-5.23;100.00;96197.56;1031625;28;20262;-72
2021/01/12 01:51:52;;;;;;;53.78;26.13;;;;;;;-5.23;100.00;96206.16;1043873;28;20017;-72
2021/01/12 01:52:25;;;;;;;49.50;25.38;;;;;;;-5.22;100.00;96202.69;1027612;28;20054;-72
2021/01/12 01:52:56;;;;;;;52.50;26.27;;;;;;;-5.20;100.00;96200.03;1035662;28;20096;-72
2021/01/12 01:53:27;;;;;;;51.63;25.77;;;;;;;-5.20;100.00;96200.84;1031494;28;20253;-72
2021/01/12 01:53:57;;;;;;;53.95;26.45;;;;;;;-5.28;100.00;96189.19;1035773;28;20268;-71
2021/01/12 01:54:28;;;;;;;49.65;26.08;;;;;;;-5.24;100.00;96193.28;1039847;28;20478;-71
2021/01/12 01:54:59;;;;;;;48.08;23.92;;;;;;;-5.24;100.00;96194.16;1039830;28;20014;-72
2021/01/12 01:55:29;;;;;;;50.97;24.98;;;;;;;-5.22;100.00;96197.50;1035707;28;20025;-71
2021/01/12 01:56:03;;;;;;;52.00;26.75;;;;;;;-5.28;100.00;96184.84;1031767;28;20015;-71
2021/01/12 01:56:34;;;;;;;52.00;26.48;;;;;;;-5.23;100.00;96185.47;1039808;28;20489;-72
2021/01/12 01:57:05;;;;;;;48.28;24.73;;;;;;;-5.40;100.00;96157.81;1031647;28;20249;-72
2021/01/12 01:57:36;;;;;;;47.90;24.70;;;;;;;-5.21;100.00;96187.97;1039684;28;20292;-71
2021/01/12 01:58:07;;;;;;;47.25;24.75;;;;;;;-5.26;100.00;96179.59;1035780;28;20140;-72
2021/01/12 01:58:39;;;;;;;53.45;25.58;;;;;;;-5.23;100.00;96190.63;1031682;28;20022;-71
2021/01/12 01:59:10;;;;;;;51.28;25.25;;;;;;;-5.18;100.00;96193.00;1027645;28;20749;-72
2021/01/12 01:59:42;;;;;;;49.63;25.63;;;;;;;-5.23;100.00;96195.00;1039680;28;20256;-72
2021/01/12 02:00:16;;;;;;;47.95;24.88;;;;;;;-5.20;100.00;96195.69;1039816;28;20573;-72
2021/01/12 02:00:48;;;;;;;49.42;25.17;;;;;;;-5.18;100.00;96198.19;1039801;28;20260;-71
2021/01/12 02:01:19;;;;;;;49.30;25.10;;;;;;;-5.29;100.00;96180.59;1039708;28;20244;-71
2021/01/12 02:01:50;;;;;;;53.42;25.08;;;;;;;-5.16;100.00;96197.19;1035507;28;20474;-72
2021/01/12 02:02:20;;;;;;;53.85;26.30;;;;;;;-5.17;100.00;96200.72;1039729;28;20064;-71
2021/01/12 02:02:54;;;;;;;50.88;25.02;;;;;;;-5.14;100.00;96199.72;1043951;28;20478;-73
2021/01/12 02:03:30;;;;;;;49.47;24.35;;;;;;;-5.20;100.00;96193.09;1039454;28;20071;-71
2021/01/12 02:04:04;;;;;;;51.90;25.05;;;;;;;-5.12;100.00;96196.16;1047845;28;20369;-73
2021/01/12 02:04:37;;;;;;;49.08;23.75;;;;;;;-5.13;100.00;96194.47;1039761;28;20768;-71
2021/01/12 02:05:09;;;;;;;45.35;22.63;;;;;;;-5.08;100.00;96194.25;1035706;28;20645;-71
2021/01/12 02:05:41;;;;;;;50.80;24.08;;;;;;;-5.08;100.00;96190.84;1035664;28;20230;-72
2021/01/12 02:06:19;;;;;;;48.10;25.08;;;;;;;-5.08;100.00;96194.25;1035506;28;20280;-73
2021/01/12 02:06:50;;;;;;;48.35;24.20;;;;;;;-5.16;100.00;96181.66;1039756;28;20280;-72
2021/01/12 02:07:21;;;;;;;50.78;25.02;;;;;;;-5.10;100.00;96188.31;1031878;28;20242;-71
2021/01/12 02:07:52;;;;;;;49.03;24.77;;;;;;;-5.08;100.00;96194.25;1039624;28;20268;-72
2021/01/12 02:08:25;;;;;;;53.53;25.55;;;;;;;-5.06;100.00;96186.41;1039812;28;20024;-72
2021/01/12 02:09:07;;;;;;;46.58;23.40;;;;;;;-5.06;100.00;96181.25;1035689;28;20464;-72
2021/01/12 02:09:44;;;;;;;48.65;24.83;;;;;;;-5.06;100.00;96189.00;1035630;28;20287;-71
2021/01/12 02:10:16;;;;;;;50.50;24.20;;;;;;;-5.17;100.00;96166.22;1035573;28;20245;-71
2021/01/12 02:10:47;;;;;;;49.42;24.67;;;;;;;-5.09;100.00;96178.78;1031597;28;20250;-71
2021/01/12 02:11:18;;;;;;;53.63;26.02;;;;;;;-5.36;100.00;96128.28;1035698;28;20253;-72
2021/01/12 02:11:53;;;;;;;51.67;24.67;;;;;;;-5.09;100.00;96171.84;1036136;28;20074;-71
2021/01/12 02:12:32;;;;;;;48.60;24.65;;;;;;;-5.03;100.00;96181.06;1032357;28;20093;-71
2021/01/12 02:13:03;;;;;;;50.03;23.67;;;;;;;-5.10;100.00;96167.59;1040550;28;20260;-71
2021/01/12 02:13:34;;;;;;;45.58;22.42;;;;;;;-5.01;100.00;96180.09;1048788;28;20115;-71
2021/01/12 02:14:05;;;;;;;44.60;23.48;;;;;;;-5.01;100.00;96174.91;1040398;28;20029;-72
2021/01/12 02:14:38;;;;;;;46.90;24.20;;;;;;;-5.21;100.00;96147.41;1040464;28;20075;-72
2021/01/12 02:15:09;;;;;;;47.40;24.88;;;;;;;-5.00;100.00;96175.75;1032359;28;20318;-71
2021/01/12 02:15:40;;;;;;;46.20;22.65;;;;;;;-4.98;100.00;96176.50;1036411;28;20688;-71
2021/01/12 02:16:11;;;;;;;48.60;25.17;;;;;;;-4.95;100.00;96178.94;1040242;28;20347;-73
2021/01/12 02:16:43;;;;;;;48.95;23.88;;;;;;;-4.96;100.00;96183.28;1044594;28;20027;-71
2021/01/12 02:17:14;;;;;;;47.97;24.52;;;;;;;-4.95;100.00;96184.13;1036542;28;20320;-72
2021/01/12 02:17:45;;;;;;;48.03;23.65;;;;;;;-4.93;100.00;96184.88;1036520;28;20295;-71
2021/01/12 02:18:15;;;;;;;49.60;25.05;;;;;;;-4.90;100.00;96189.09;1040401;28;20401;-71
2021/01/12 02:18:46;;;;;;;46.53;23.38;;;;;;;-4.87;100.00;96181.19;1032384;28;20490;-72
2021/01/12 02:19:18;;;;;;;45.00;23.02;;;;;;;-4.95;100.00;96169.41;1032469;28;20483;-71
2021/01/12 02:19:50;;;;;;;48.95;23.98;;;;;;;-4.87;100.00;96186.34;1032409;28;20014;-71
2021/01/12 02:20:26;;;;;;;47.60;22.70;;;;;;;-4.83;100.00;96188.69;1040285;28;20244;-72
2021/01/12 02:20:57;;;;;;;49.33;23.85;;;;;;;-4.82;100.00;96189.56;1032379;28;20246;-71
2021/01/12 02:21:28;;;;;;;44.75;23.80;;;;;;;-4.86;100.00;96178.50;1044612;28;20262;-71
2021/01/12 02:22:01;;;;;;;48.83;22.98;;;;;;;-4.80;100.00;96182.53;1044635;28;20659;-71
2021/01/12 02:22:32;;;;;;;48.88;23.65;;;;;;;-4.81;100.00;96180.84;1032069;28;20028;-72
2021/01/12 02:23:16;;;;;;;53.70;26.00;;;;;;;-4.82;100.00;96174.84;1040534;28;20357;-72
2021/01/12 02:23:50;;;;;;;51.00;23.75;;;;;;;-4.80;100.00;96174.78;1044582;28;20025;-71